Terminal Aerodrome Forecast
Issued by NWS Sioux Falls, SD

Home | Current Version | Previous Version | Graphics & Text | Print | Product List | Glossary Off
Versions: 1 2 3 4 5 6 7 8 9 10 11 12 13

000
FTUS43 KFSD 180528
TAFSUX
TAF
KSUX 180528Z 1806/1906 15006KT P6SM BKN090
     FM181300 15006KT P6SM BKN090
     FM181500 18008KT P6SM BKN090
     FM182300 14008KT P6SM BKN120
     FM190000 13007KT P6SM BKN110
     FM190300 10007KT P6SM OVC090=

USA.gov is the U.S. government's official web portal to all federal, state and local government web resources and services.